sensor_id;sensor_type;location;lat;lon;timestamp;temperature;humidity
12720;DHT22;6424;48.520;11.228;2023-01-28T00:00:13;-1.40;99.90
12720;DHT22;6424;48.520;11.228;2023-01-28T00:02:54;-1.30;99.90
12720;DHT22;6424;48.520;11.228;2023-01-28T00:05:20;-1.30;99.90
12720;DHT22;6424;48.520;11.228;2023-01-28T00:08:03;-1.30;99.90
12720;DHT22;6424;48.520;11.228;2023-01-28T00:10:44;-1.40;99.90
12720;DHT22;6424;48.520;11.228;2023-01-28T00:13:25;-1.30;99.90
12720;DHT22;6424;48.520;11.228;2023-01-28T00:16:07;-1.30;99.90
12720;DHT22;6424;48.520;11.228;2023-01-28T00:18:49;-1.30;99.90
12720;DHT22;6424;48.520;11.228;2023-01-28T00:21:29;-1.40;99.90
12720;DHT22;6424;48.520;11.228;2023-01-28T00:24:10;-1.30;99.90
12720;DHT22;6424;48.520;11.228;2023-01-28T00:26:51;-1.30;99.90
12720;DHT22;6424;48.520;11.228;2023-01-28T00:29:32;-1.30;99.90
12720;DHT22;6424;48.520;11.228;2023-01-28T00:32:13;-1.30;99.90
12720;DHT22;6424;48.520;11.228;2023-01-28T00:34:53;-1.30;99.90
12720;DHT22;6424;48.520;11.228;2023-01-28T00:37:34;-1.30;99.90
12720;DHT22;6424;48.520;11.228;2023-01-28T00:40:16;-1.30;99.90
12720;DHT22;6424;48.520;11.228;2023-01-28T00:42:57;-1.30;99.90
12720;DHT22;6424;48.520;11.228;2023-01-28T00:45:38;-1.30;99.90
12720;DHT22;6424;48.520;11.228;2023-01-28T00:48:04;-1.40;99.90
12720;DHT22;6424;48.520;11.228;2023-01-28T00:50:46;-1.30;99.90
12720;DHT22;6424;48.520;11.228;2023-01-28T00:53:11;-1.40;99.90
12720;DHT22;6424;48.520;11.228;2023-01-28T00:55:52;-1.40;99.90
12720;DHT22;6424;48.520;11.228;2023-01-28T00:58:34;-1.40;99.90
12720;DHT22;6424;48.520;11.228;2023-01-28T01:01:19;-1.40;99.90
12720;DHT22;6424;48.520;11.228;2023-01-28T01:04:00;-1.40;99.90
12720;DHT22;6424;48.520;11.228;2023-01-28T01:06:43;-1.40;99.90
12720;DHT22;6424;48.520;11.228;2023-01-28T01:09:24;-1.40;99.90
12720;DHT22;6424;48.520;11.228;2023-01-28T01:11:50;-1.30;99.90
12720;DHT22;6424;48.520;11.228;2023-01-28T01:14:16;-1.30;99.90
12720;DHT22;6424;48.520;11.228;2023-01-28T01:16:56;-1.30;99.90
12720;DHT22;6424;48.520;11.228;2023-01-28T01:19:37;-1.30;99.90
12720;DHT22;6424;48.520;11.228;2023-01-28T01:22:18;-1.30;99.90
12720;DHT22;6424;48.520;11.228;2023-01-28T01:24:59;-1.30;99.90
12720;DHT22;6424;48.520;11.228;2023-01-28T01:27:40;-1.30;99.90
12720;DHT22;6424;48.520;11.228;2023-01-28T01:30:21;-1.30;99.90
12720;DHT22;6424;48.520;11.228;2023-01-28T01:33:02;-1.30;99.90
12720;DHT22;6424;48.520;11.228;2023-01-28T01:35:42;-1.30;99.90
12720;DHT22;6424;48.520;11.228;2023-01-28T01:38:24;-1.30;99.90
12720;DHT22;6424;48.520;11.228;2023-01-28T01:41:05;-1.30;99.90
12720;DHT22;6424;48.520;11.228;2023-01-28T01:43:58;-1.30;99.90
12720;DHT22;6424;48.520;11.228;2023-01-28T01:46:49;-1.30;99.90
12720;DHT22;6424;48.520;11.228;2023-01-28T01:49:31;-1.30;99.90
12720;DHT22;6424;48.520;11.228;2023-01-28T01:52:15;-1.20;99.90
12720;DHT22;6424;48.520;11.228;2023-01-28T01:54:59;-1.20;99.90
12720;DHT22;6424;48.520;11.228;2023-01-28T01:57:42;-1.30;99.90
12720;DHT22;6424;48.520;11.228;2023-01-28T02:00:23;-1.30;99.90
12720;DHT22;6424;48.520;11.228;2023-01-28T02:03:04;-1.30;99.90
12720;DHT22;6424;48.520;11.228;2023-01-28T02:05:45;-1.30;99.90
12720;DHT22;6424;48.520;11.228;2023-01-28T02:08:11;-1.30;99.90
12720;DHT22;6424;48.520;11.228;2023-01-28T02:11:05;-1.30;99.90
12720;DHT22;6424;48.520;11.228;2023-01-28T02:13:49;-1.30;99.90
12720;DHT22;6424;48.520;11.228;2023-01-28T02:16:33;-1.30;99.90
12720;DHT22;6424;48.520;11.228;2023-01-28T02:19:16;-1.30;99.90
12720;DHT22;6424;48.520;11.228;2023-01-28T02:34:01;-1.30;99.90
12720;DHT22;6424;48.520;11.228;2023-01-28T02:36:58;-1.20;99.90
12720;DHT22;6424;48.520;11.228;2023-01-28T02:39:47;-1.30;99.90
12720;DHT22;6424;48.520;11.228;2023-01-28T02:42:31;-1.30;99.90
12720;DHT22;6424;48.520;11.228;2023-01-28T02:45:20;-1.30;99.90
12720;DHT22;6424;48.520;11.228;2023-01-28T02:48:01;-1.20;99.90
12720;DHT22;6424;48.520;11.228;2023-01-28T02:51:52;-1.20;99.90
12720;DHT22;6424;48.520;11.228;2023-01-28T02:54:21;-1.20;99.90
12720;DHT22;6424;48.520;11.228;2023-01-28T03:00:11;-1.10;99.90
12720;DHT22;6424;48.520;11.228;2023-01-28T03:03:49;-1.10;99.90
12720;DHT22;6424;48.520;11.228;2023-01-28T03:06:07;-1.10;99.90
12720;DHT22;6424;48.520;11.228;2023-01-28T03:09:09;-1.10;99.90
12720;DHT22;6424;48.520;11.228;2023-01-28T03:12:17;-1.10;99.90
12720;DHT22;6424;48.520;11.228;2023-01-28T03:15:31;-1.10;99.90
12720;DHT22;6424;48.520;11.228;2023-01-28T03:18:46;-1.10;99.90
12720;DHT22;6424;48.520;11.228;2023-01-28T03:21:47;-1.10;99.90
12720;DHT22;6424;48.520;11.228;2023-01-28T03:24:49;-1.10;99.90
12720;DHT22;6424;48.520;11.228;2023-01-28T03:27:55;-1.00;99.90
12720;DHT22;6424;48.520;11.228;2023-01-28T03:31:15;-1.00;99.90
12720;DHT22;6424;48.520;11.228;2023-01-28T03:34:16;-1.10;99.90
12720;DHT22;6424;48.520;11.228;2023-01-28T03:37:17;-1.10;99.90
12720;DHT22;6424;48.520;11.228;2023-01-28T03:40:03;-1.10;99.90
12720;DHT22;6424;48.520;11.228;2023-01-28T03:42:31;-1.10;99.90
12720;DHT22;6424;48.520;11.228;2023-01-28T03:45:12;-1.10;99.90
12720;DHT22;6424;48.520;11.228;2023-01-28T03:47:54;-1.00;99.90
12720;DHT22;6424;48.520;11.228;2023-01-28T03:50:34;-1.00;99.90
12720;DHT22;6424;48.520;11.228;2023-01-28T03:53:16;-1.00;99.90
12720;DHT22;6424;48.520;11.228;2023-01-28T03:55:57;-1.10;99.90
12720;DHT22;6424;48.520;11.228;2023-01-28T03:58:37;-1.00;99.90
12720;DHT22;6424;48.520;11.228;2023-01-28T04:01:35;-0.90;99.90
12720;DHT22;6424;48.520;11.228;2023-01-28T04:04:16;-0.90;99.90
12720;DHT22;6424;48.520;11.228;2023-01-28T04:07:05;-0.90;99.90
12720;DHT22;6424;48.520;11.228;2023-01-28T04:09:48;-1.00;99.90
12720;DHT22;6424;48.520;11.228;2023-01-28T04:12:28;-1.00;99.90
12720;DHT22;6424;48.520;11.228;2023-01-28T04:15:09;-1.00;99.90
12720;DHT22;6424;48.520;11.228;2023-01-28T04:17:56;-1.00;99.90
12720;DHT22;6424;48.520;11.228;2023-01-28T04:20:38;-0.90;99.90
12720;DHT22;6424;48.520;11.228;2023-01-28T04:23:18;-0.90;99.90
12720;DHT22;6424;48.520;11.228;2023-01-28T04:25:59;-0.90;99.90
12720;DHT22;6424;48.520;11.228;2023-01-28T04:28:40;-0.90;99.90
12720;DHT22;6424;48.520;11.228;2023-01-28T04:31:21;-0.90;99.90
12720;DHT22;6424;48.520;11.228;2023-01-28T04:34:03;-0.90;99.90
12720;DHT22;6424;48.520;11.228;2023-01-28T04:36:44;-1.00;99.90
12720;DHT22;6424;48.520;11.228;2023-01-28T04:39:24;-1.00;99.90
12720;DHT22;6424;48.520;11.228;2023-01-28T04:42:05;-1.00;99.90
12720;DHT22;6424;48.520;11.228;2023-01-28T04:44:46;-1.10;99.90
12720;DHT22;6424;48.520;11.228;2023-01-28T04:47:26;-1.10;99.90
12720;DHT22;6424;48.520;11.228;2023-01-28T04:50:08;-1.10;99.90
12720;DHT22;6424;48.520;11.228;2023-01-28T04:52:49;-1.00;99.90
12720;DHT22;6424;48.520;11.228;2023-01-28T04:55:29;-1.00;99.90
12720;DHT22;6424;48.520;11.228;2023-01-28T04:58:10;-1.00;99.90
12720;DHT22;6424;48.520;11.228;2023-01-28T05:01:00;-1.00;99.90
12720;DHT22;6424;48.520;11.228;2023-01-28T05:03:41;-1.00;99.90
12720;DHT22;6424;48.520;11.228;2023-01-28T05:06:21;-1.00;99.90
12720;DHT22;6424;48.520;11.228;2023-01-28T05:09:02;-1.00;99.90
12720;DHT22;6424;48.520;11.228;2023-01-28T05:11:28;-1.00;99.90
12720;DHT22;6424;48.520;11.228;2023-01-28T05:14:09;-1.00;99.90
12720;DHT22;6424;48.520;11.228;2023-01-28T05:16:49;-1.00;99.90
12720;DHT22;6424;48.520;11.228;2023-01-28T05:19:30;-0.90;99.90
12720;DHT22;6424;48.520;11.228;2023-01-28T05:22:11;-0.90;99.90
12720;DHT22;6424;48.520;11.228;2023-01-28T05:24:52;-0.90;99.90
12720;DHT22;6424;48.520;11.228;2023-01-28T05:27:33;-0.90;99.90
12720;DHT22;6424;48.520;11.228;2023-01-28T05:30:14;-0.90;99.90
12720;DHT22;6424;48.520;11.228;2023-01-28T05:32:55;-0.90;99.90
12720;DHT22;6424;48.520;11.228;2023-01-28T05:35:36;-0.90;99.90
12720;DHT22;6424;48.520;11.228;2023-01-28T05:38:17;-0.90;99.90
12720;DHT22;6424;48.520;11.228;2023-01-28T05:40:58;-0.90;99.90
12720;DHT22;6424;48.520;11.228;2023-01-28T05:43:39;-1.00;99.90
12720;DHT22;6424;48.520;11.228;2023-01-28T05:46:19;-1.00;99.90
12720;DHT22;6424;48.520;11.228;2023-01-28T05:49:01;-1.10;99.90
12720;DHT22;6424;48.520;11.228;2023-01-28T05:51:42;-1.00;99.90
12720;DHT22;6424;48.520;11.228;2023-01-28T05:54:22;-1.10;99.90
12720;DHT22;6424;48.520;11.228;2023-01-28T05:57:03;-1.10;99.90
12720;DHT22;6424;48.520;11.228;2023-01-28T05:59:44;-1.00;99.90
12720;DHT22;6424;48.520;11.228;2023-01-28T06:02:25;-1.10;99.90
12720;DHT22;6424;48.520;11.228;2023-01-28T06:04:50;-1.10;99.90
12720;DHT22;6424;48.520;11.228;2023-01-28T06:07:31;-1.10;99.90
12720;DHT22;6424;48.520;11.228;2023-01-28T06:10:13;-1.10;99.90
12720;DHT22;6424;48.520;11.228;2023-01-28T06:12:53;-1.10;99.90
12720;DHT22;6424;48.520;11.228;2023-01-28T06:15:34;-1.10;99.90
12720;DHT22;6424;48.520;11.228;2023-01-28T06:18:15;-1.10;99.90
12720;DHT22;6424;48.520;11.228;2023-01-28T06:20:56;-1.10;99.90
12720;DHT22;6424;48.520;11.228;2023-01-28T06:23:36;-1.10;99.90
12720;DHT22;6424;48.520;11.228;2023-01-28T06:26:17;-1.10;99.90
12720;DHT22;6424;48.520;11.228;2023-01-28T06:28:43;-1.10;99.90
12720;DHT22;6424;48.520;11.228;2023-01-28T06:31:24;-1.10;99.90
12720;DHT22;6424;48.520;11.228;2023-01-28T06:34:04;-1.10;99.90
12720;DHT22;6424;48.520;11.228;2023-01-28T06:36:45;-1.00;99.90
12720;DHT22;6424;48.520;11.228;2023-01-28T06:39:26;-1.10;99.90
12720;DHT22;6424;48.520;11.228;2023-01-28T06:42:11;-1.10;99.90
12720;DHT22;6424;48.520;11.228;2023-01-28T06:44:51;-1.10;99.90
12720;DHT22;6424;48.520;11.228;2023-01-28T06:47:32;-1.10;99.90
12720;DHT22;6424;48.520;11.228;2023-01-28T06:50:13;-1.10;99.90
12720;DHT22;6424;48.520;11.228;2023-01-28T06:52:54;-1.10;99.90
12720;DHT22;6424;48.520;11.228;2023-01-28T06:55:35;-1.10;99.90
12720;DHT22;6424;48.520;11.228;2023-01-28T06:58:16;-1.10;99.90
12720;DHT22;6424;48.520;11.228;2023-01-28T07:00:56;-1.10;99.90
12720;DHT22;6424;48.520;11.228;2023-01-28T07:03:37;-1.00;99.90
12720;DHT22;6424;48.520;11.228;2023-01-28T07:06:18;-0.90;99.90
12720;DHT22;6424;48.520;11.228;2023-01-28T07:08:58;-0.90;99.90
12720;DHT22;6424;48.520;11.228;2023-01-28T07:11:40;-0.90;99.90
12720;DHT22;6424;48.520;11.228;2023-01-28T07:14:21;-0.90;99.90
12720;DHT22;6424;48.520;11.228;2023-01-28T07:17:02;-0.90;99.90
12720;DHT22;6424;48.520;11.228;2023-01-28T07:19:43;-0.80;99.90
12720;DHT22;6424;48.520;11.228;2023-01-28T07:22:23;-0.90;99.90
12720;DHT22;6424;48.520;11.228;2023-01-28T07:25:05;-0.80;99.90
12720;DHT22;6424;48.520;11.228;2023-01-28T07:27:51;-0.80;99.90
12720;DHT22;6424;48.520;11.228;2023-01-28T07:30:19;-0.90;99.90
12720;DHT22;6424;48.520;11.228;2023-01-28T07:33:00;-0.90;99.90
12720;DHT22;6424;48.520;11.228;2023-01-28T07:35:41;-0.80;99.90
12720;DHT22;6424;48.520;11.228;2023-01-28T07:38:22;-0.80;99.90
12720;DHT22;6424;48.520;11.228;2023-01-28T07:41:03;-0.80;99.90
12720;DHT22;6424;48.520;11.228;2023-01-28T07:43:43;-0.90;99.90
12720;DHT22;6424;48.520;11.228;2023-01-28T07:46:24;-0.90;99.90
12720;DHT22;6424;48.520;11.228;2023-01-28T07:49:05;-0.90;99.90
12720;DHT22;6424;48.520;11.228;2023-01-28T07:51:46;-0.90;99.90
12720;DHT22;6424;48.520;11.228;2023-01-28T07:54:28;-0.90;99.90
12720;DHT22;6424;48.520;11.228;2023-01-28T07:57:09;-0.90;99.90
12720;DHT22;6424;48.520;11.228;2023-01-28T07:59:50;-0.80;99.90
12720;DHT22;6424;48.520;11.228;2023-01-28T08:02:30;-0.80;99.90
12720;DHT22;6424;48.520;11.228;2023-01-28T08:05:11;-0.80;99.90
12720;DHT22;6424;48.520;11.228;2023-01-28T08:07:52;-0.70;99.90
12720;DHT22;6424;48.520;11.228;2023-01-28T08:10:33;-0.60;99.90
12720;DHT22;6424;48.520;11.228;2023-01-28T08:13:15;-0.60;99.90
12720;DHT22;6424;48.520;11.228;2023-01-28T08:15:57;-0.60;99.90
12720;DHT22;6424;48.520;11.228;2023-01-28T08:18:37;-0.60;99.90
12720;DHT22;6424;48.520;11.228;2023-01-28T08:21:18;-0.60;99.90
12720;DHT22;6424;48.520;11.228;2023-01-28T08:23:59;-0.50;99.90
12720;DHT22;6424;48.520;11.228;2023-01-28T08:26:40;-0.50;99.90
12720;DHT22;6424;48.520;11.228;2023-01-28T08:29:20;-0.60;99.90
12720;DHT22;6424;48.520;11.228;2023-01-28T08:32:01;-0.60;99.90
12720;DHT22;6424;48.520;11.228;2023-01-28T08:34:42;-0.60;99.90
12720;DHT22;6424;48.520;11.228;2023-01-28T08:37:23;-0.60;99.90
12720;DHT22;6424;48.520;11.228;2023-01-28T08:40:04;-0.60;99.90
12720;DHT22;6424;48.520;11.228;2023-01-28T08:42:49;-0.60;99.90
12720;DHT22;6424;48.520;11.228;2023-01-28T08:45:31;-0.60;99.90
12720;DHT22;6424;48.520;11.228;2023-01-28T08:48:15;-0.60;99.90
12720;DHT22;6424;48.520;11.228;2023-01-28T08:50:58;-0.70;99.90
12720;DHT22;6424;48.520;11.228;2023-01-28T08:53:39;-0.60;99.90
12720;DHT22;6424;48.520;11.228;2023-01-28T08:56:05;-0.60;99.90
12720;DHT22;6424;48.520;11.228;2023-01-28T08:58:46;-0.60;99.90
12720;DHT22;6424;48.520;11.228;2023-01-28T09:01:27;-0.70;99.90
12720;DHT22;6424;48.520;11.228;2023-01-28T09:04:08;-0.60;99.90
12720;DHT22;6424;48.520;11.228;2023-01-28T09:06:49;-0.60;99.90
12720;DHT22;6424;48.520;11.228;2023-01-28T09:09:30;-0.50;99.90
12720;DHT22;6424;48.520;11.228;2023-01-28T09:12:11;-0.50;99.90
12720;DHT22;6424;48.520;11.228;2023-01-28T09:14:52;-0.40;99.90
12720;DHT22;6424;48.520;11.228;2023-01-28T09:17:33;-0.40;99.90
12720;DHT22;6424;48.520;11.228;2023-01-28T09:19:59;-0.30;99.90
12720;DHT22;6424;48.520;11.228;2023-01-28T09:22:40;-0.30;99.90
12720;DHT22;6424;48.520;11.228;2023-01-28T09:25:21;-0.20;99.90
12720;DHT22;6424;48.520;11.228;2023-01-28T09:28:02;-0.10;99.90
12720;DHT22;6424;48.520;11.228;2023-01-28T09:30:43;0.00;99.90
12720;DHT22;6424;48.520;11.228;2023-01-28T09:33:23;0.00;99.90
12720;DHT22;6424;48.520;11.228;2023-01-28T09:36:06;0.10;99.90
12720;DHT22;6424;48.520;11.228;2023-01-28T09:38:48;0.00;99.90
12720;DHT22;6424;48.520;11.228;2023-01-28T09:47:54;0.20;99.90
12720;DHT22;6424;48.520;11.228;2023-01-28T09:50:41;0.30;99.90
12720;DHT22;6424;48.520;11.228;2023-01-28T09:53:30;0.30;99.90
12720;DHT22;6424;48.520;11.228;2023-01-28T09:56:21;0.30;99.90
12720;DHT22;6424;48.520;11.228;2023-01-28T09:59:19;0.20;99.90
12720;DHT22;6424;48.520;11.228;2023-01-28T10:01:53;0.20;99.90
12720;DHT22;6424;48.520;11.228;2023-01-28T10:11:22;0.30;99.90
12720;DHT22;6424;48.520;11.228;2023-01-28T10:19:56;0.60;99.90
12720;DHT22;6424;48.520;11.228;2023-01-28T10:25:31;0.60;99.90
12720;DHT22;6424;48.520;11.228;2023-01-28T10:28:28;0.50;99.90
12720;DHT22;6424;48.520;11.228;2023-01-28T10:31:12;0.50;99.90
12720;DHT22;6424;48.520;11.228;2023-01-28T10:33:55;0.50;99.90
12720;DHT22;6424;48.520;11.228;2023-01-28T10:36:37;0.50;99.90
12720;DHT22;6424;48.520;11.228;2023-01-28T10:39:20;0.50;99.90
12720;DHT22;6424;48.520;11.228;2023-01-28T10:42:07;0.40;99.90
12720;DHT22;6424;48.520;11.228;2023-01-28T10:44:50;0.50;99.90
12720;DHT22;6424;48.520;11.228;2023-01-28T10:47:43;0.50;99.90
12720;DHT22;6424;48.520;11.228;2023-01-28T10:50:29;0.50;99.90
12720;DHT22;6424;48.520;11.228;2023-01-28T10:53:10;0.40;99.90
12720;DHT22;6424;48.520;11.228;2023-01-28T10:55:55;0.40;99.90
12720;DHT22;6424;48.520;11.228;2023-01-28T10:59:03;0.40;99.90
12720;DHT22;6424;48.520;11.228;2023-01-28T11:01:48;0.40;99.90
12720;DHT22;6424;48.520;11.228;2023-01-28T11:04:28;0.50;99.90
12720;DHT22;6424;48.520;11.228;2023-01-28T11:07:20;0.50;99.90
12720;DHT22;6424;48.520;11.228;2023-01-28T11:10:01;0.60;99.90
12720;DHT22;6424;48.520;11.228;2023-01-28T11:12:42;0.60;99.90
12720;DHT22;6424;48.520;11.228;2023-01-28T11:15:22;0.60;99.90
12720;DHT22;6424;48.520;11.228;2023-01-28T11:17:59;0.60;99.90
12720;DHT22;6424;48.520;11.228;2023-01-28T11:20:42;0.50;99.90
12720;DHT22;6424;48.520;11.228;2023-01-28T11:23:32;0.50;99.90
12720;DHT22;6424;48.520;11.228;2023-01-28T11:26:17;0.50;99.90
12720;DHT22;6424;48.520;11.228;2023-01-28T11:28:59;0.40;99.90
12720;DHT22;6424;48.520;11.228;2023-01-28T11:31:42;0.40;99.90
12720;DHT22;6424;48.520;11.228;2023-01-28T11:34:29;0.40;99.90
12720;DHT22;6424;48.520;11.228;2023-01-28T11:37:14;0.50;99.90
12720;DHT22;6424;48.520;11.228;2023-01-28T11:40:16;0.40;99.90
12720;DHT22;6424;48.520;11.228;2023-01-28T11:42:59;0.50;99.90
12720;DHT22;6424;48.520;11.228;2023-01-28T11:59:52;0.40;99.90
12720;DHT22;6424;48.520;11.228;2023-01-28T12:03:05;0.40;99.90
12720;DHT22;6424;48.520;11.228;2023-01-28T12:06:21;0.40;99.90
12720;DHT22;6424;48.520;11.228;2023-01-28T12:20:45;0.20;99.90
12720;DHT22;6424;48.520;11.228;2023-01-28T12:38:56;0.20;99.90
12720;DHT22;6424;48.520;11.228;2023-01-28T12:41:48;0.20;99.90
12720;DHT22;6424;48.520;11.228;2023-01-28T12:44:42;0.20;99.90
12720;DHT22;6424;48.520;11.228;2023-01-28T12:47:12;0.20;99.90
12720;DHT22;6424;48.520;11.228;2023-01-28T12:49:54;0.20;99.90
12720;DHT22;6424;48.520;11.228;2023-01-28T12:55:53;0.20;99.90
12720;DHT22;6424;48.520;11.228;2023-01-28T12:58:44;0.30;99.90
12720;DHT22;6424;48.520;11.228;2023-01-28T13:01:35;0.30;99.90
12720;DHT22;6424;48.520;11.228;2023-01-28T13:04:41;0.30;99.90
12720;DHT22;6424;48.520;11.228;2023-01-28T13:10:25;0.20;99.90
12720;DHT22;6424;48.520;11.228;2023-01-28T13:13:14;0.10;99.90
12720;DHT22;6424;48.520;11.228;2023-01-28T13:15:57;0.00;99.90
12720;DHT22;6424;48.520;11.228;2023-01-28T13:21:33;-0.10;99.90
12720;DHT22;6424;48.520;11.228;2023-01-28T13:26:44;-0.10;99.90
12720;DHT22;6424;48.520;11.228;2023-01-28T13:29:31;0.00;99.90
12720;DHT22;6424;48.520;11.228;2023-01-28T13:32:34;0.00;99.90
12720;DHT22;6424;48.520;11.228;2023-01-28T13:35:38;0.00;99.90
12720;DHT22;6424;48.520;11.228;2023-01-28T13:38:20;0.00;99.90
12720;DHT22;6424;48.520;11.228;2023-01-28T13:41:01;0.00;99.90
12720;DHT22;6424;48.520;11.228;2023-01-28T13:43:45;0.00;99.90
12720;DHT22;6424;48.520;11.228;2023-01-28T13:46:28;0.00;99.90
12720;DHT22;6424;48.520;11.228;2023-01-28T13:49:14;0.10;99.90
12720;DHT22;6424;48.520;11.228;2023-01-28T13:54:59;0.00;99.90
12720;DHT22;6424;48.520;11.228;2023-01-28T14:01:30;0.00;99.90
12720;DHT22;6424;48.520;11.228;2023-01-28T14:04:30;0.10;99.90
12720;DHT22;6424;48.520;11.228;2023-01-28T14:19:21;0.10;99.90
12720;DHT22;6424;48.520;11.228;2023-01-28T14:22:12;0.10;99.90
12720;DHT22;6424;48.520;11.228;2023-01-28T14:24:59;0.10;99.90
12720;DHT22;6424;48.520;11.228;2023-01-28T14:27:44;0.10;99.90
12720;DHT22;6424;48.520;11.228;2023-01-28T14:33:20;0.00;99.90
12720;DHT22;6424;48.520;11.228;2023-01-28T14:36:02;0.00;99.90
12720;DHT22;6424;48.520;11.228;2023-01-28T14:38:44;0.00;99.90
12720;DHT22;6424;48.520;11.228;2023-01-28T14:41:27;0.00;99.90
12720;DHT22;6424;48.520;11.228;2023-01-28T14:44:08;0.00;99.90
12720;DHT22;6424;48.520;11.228;2023-01-28T15:02:00;0.40;99.90
12720;DHT22;6424;48.520;11.228;2023-01-28T15:04:41;0.50;99.90
12720;DHT22;6424;48.520;11.228;2023-01-28T15:07:25;0.50;99.90
12720;DHT22;6424;48.520;11.228;2023-01-28T15:13:02;0.40;99.90
12720;DHT22;6424;48.520;11.228;2023-01-28T15:15:46;0.30;99.90
12720;DHT22;6424;48.520;11.228;2023-01-28T15:18:35;0.30;99.90
12720;DHT22;6424;48.520;11.228;2023-01-28T15:21:24;0.20;99.90
12720;DHT22;6424;48.520;11.228;2023-01-28T15:24:08;0.10;99.90
12720;DHT22;6424;48.520;11.228;2023-01-28T15:26:51;0.10;99.90
12720;DHT22;6424;48.520;11.228;2023-01-28T15:29:34;0.00;99.90
12720;DHT22;6424;48.520;11.228;2023-01-28T15:32:28;0.00;99.90
12720;DHT22;6424;48.520;11.228;2023-01-28T15:35:11;0.00;99.90
12720;DHT22;6424;48.520;11.228;2023-01-28T15:37:53;0.00;99.90
12720;DHT22;6424;48.520;11.228;2023-01-28T15:40:41;0.00;99.90
12720;DHT22;6424;48.520;11.228;2023-01-28T15:43:34;0.00;99.90
12720;DHT22;6424;48.520;11.228;2023-01-28T15:46:16;0.00;99.90
12720;DHT22;6424;48.520;11.228;2023-01-28T15:49:01;0.00;99.90
12720;DHT22;6424;48.520;11.228;2023-01-28T15:51:48;0.00;99.90
12720;DHT22;6424;48.520;11.228;2023-01-28T15:54:30;-0.10;99.90
12720;DHT22;6424;48.520;11.228;2023-01-28T15:57:23;-0.10;99.90
12720;DHT22;6424;48.520;11.228;2023-01-28T16:00:18;-0.10;99.90
12720;DHT22;6424;48.520;11.228;2023-01-28T16:03:06;-0.20;99.90
12720;DHT22;6424;48.520;11.228;2023-01-28T16:06:00;-0.30;99.90
12720;DHT22;6424;48.520;11.228;2023-01-28T16:11:35;-0.20;99.90
12720;DHT22;6424;48.520;11.228;2023-01-28T16:14:28;-0.20;99.90
12720;DHT22;6424;48.520;11.228;2023-01-28T16:17:14;-0.20;99.90
12720;DHT22;6424;48.520;11.228;2023-01-28T16:20:20;-0.20;99.90
12720;DHT22;6424;48.520;11.228;2023-01-28T16:23:02;-0.20;99.90
12720;DHT22;6424;48.520;11.228;2023-01-28T16:25:43;-0.20;99.90
12720;DHT22;6424;48.520;11.228;2023-01-28T16:28:19;-0.20;99.90
12720;DHT22;6424;48.520;11.228;2023-01-28T16:30:59;-0.30;99.90
12720;DHT22;6424;48.520;11.228;2023-01-28T16:33:40;-0.30;99.90
12720;DHT22;6424;48.520;11.228;2023-01-28T16:36:21;-0.30;99.90
12720;DHT22;6424;48.520;11.228;2023-01-28T16:39:02;-0.30;99.90
12720;DHT22;6424;48.520;11.228;2023-01-28T16:41:45;-0.20;99.90
12720;DHT22;6424;48.520;11.228;2023-01-28T16:44:26;-0.30;99.90
12720;DHT22;6424;48.520;11.228;2023-01-28T16:46:52;-0.30;99.90
12720;DHT22;6424;48.520;11.228;2023-01-28T16:49:18;-0.20;99.90
12720;DHT22;6424;48.520;11.228;2023-01-28T16:52:00;-0.20;99.90
12720;DHT22;6424;48.520;11.228;2023-01-28T16:54:42;-0.20;99.90
12720;DHT22;6424;48.520;11.228;2023-01-28T16:57:25;-0.20;99.90
12720;DHT22;6424;48.520;11.228;2023-01-28T17:00:06;-0.20;99.90
12720;DHT22;6424;48.520;11.228;2023-01-28T17:02:48;-0.20;99.90
12720;DHT22;6424;48.520;11.228;2023-01-28T17:05:29;-0.20;99.90
12720;DHT22;6424;48.520;11.228;2023-01-28T17:08:10;-0.30;99.90
12720;DHT22;6424;48.520;11.228;2023-01-28T17:10:36;-0.30;99.90
12720;DHT22;6424;48.520;11.228;2023-01-28T17:13:16;-0.30;99.90
12720;DHT22;6424;48.520;11.228;2023-01-28T17:16:00;-0.30;99.90
12720;DHT22;6424;48.520;11.228;2023-01-28T17:18:42;-0.30;99.90
12720;DHT22;6424;48.520;11.228;2023-01-28T17:21:23;-0.30;99.90
12720;DHT22;6424;48.520;11.228;2023-01-28T17:24:04;-0.30;99.90
12720;DHT22;6424;48.520;11.228;2023-01-28T17:26:45;-0.20;99.90
12720;DHT22;6424;48.520;11.228;2023-01-28T17:29:10;-0.20;99.90
12720;DHT22;6424;48.520;11.228;2023-01-28T17:31:51;-0.20;99.90
12720;DHT22;6424;48.520;11.228;2023-01-28T17:34:32;-0.20;99.90
12720;DHT22;6424;48.520;11.228;2023-01-28T17:37:13;-0.30;99.90
12720;DHT22;6424;48.520;11.228;2023-01-28T17:39:53;-0.20;99.90
12720;DHT22;6424;48.520;11.228;2023-01-28T17:42:34;-0.30;99.90
12720;DHT22;6424;48.520;11.228;2023-01-28T17:45:15;-0.20;99.90
12720;DHT22;6424;48.520;11.228;2023-01-28T17:47:41;-0.20;99.90
12720;DHT22;6424;48.520;11.228;2023-01-28T17:50:22;-0.20;99.90
12720;DHT22;6424;48.520;11.228;2023-01-28T17:52:53;-0.20;99.90
12720;DHT22;6424;48.520;11.228;2023-01-28T17:55:34;-0.20;99.90
12720;DHT22;6424;48.520;11.228;2023-01-28T17:58:16;-0.30;99.90
12720;DHT22;6424;48.520;11.228;2023-01-28T18:00:57;-0.30;99.90
12720;DHT22;6424;48.520;11.228;2023-01-28T18:03:38;-0.30;99.90
12720;DHT22;6424;48.520;11.228;2023-01-28T18:06:18;-0.30;99.90
12720;DHT22;6424;48.520;11.228;2023-01-28T18:08:59;-0.30;99.90
12720;DHT22;6424;48.520;11.228;2023-01-28T18:11:40;-0.30;99.90
12720;DHT22;6424;48.520;11.228;2023-01-28T18:14:21;-0.30;99.90
12720;DHT22;6424;48.520;11.228;2023-01-28T18:17:01;-0.30;99.90
12720;DHT22;6424;48.520;11.228;2023-01-28T18:19:42;-0.30;99.90
12720;DHT22;6424;48.520;11.228;2023-01-28T18:22:24;-0.30;99.90
12720;DHT22;6424;48.520;11.228;2023-01-28T18:25:05;-0.30;99.90
12720;DHT22;6424;48.520;11.228;2023-01-28T18:27:31;-0.30;99.90
12720;DHT22;6424;48.520;11.228;2023-01-28T18:30:12;-0.30;99.90
12720;DHT22;6424;48.520;11.228;2023-01-28T18:32:54;-0.30;99.90
12720;DHT22;6424;48.520;11.228;2023-01-28T18:35:42;-0.30;99.90
12720;DHT22;6424;48.520;11.228;2023-01-28T18:38:23;-0.30;99.90
12720;DHT22;6424;48.520;11.228;2023-01-28T18:41:04;-0.30;99.90
12720;DHT22;6424;48.520;11.228;2023-01-28T18:43:45;-0.30;99.90
12720;DHT22;6424;48.520;11.228;2023-01-28T18:46:13;-0.30;99.90
12720;DHT22;6424;48.520;11.228;2023-01-28T18:48:56;-0.40;99.90
12720;DHT22;6424;48.520;11.228;2023-01-28T18:51:37;-0.40;99.90
12720;DHT22;6424;48.520;11.228;2023-01-28T18:54:18;-0.40;99.90
12720;DHT22;6424;48.520;11.228;2023-01-28T18:56:59;-0.40;99.90
12720;DHT22;6424;48.520;11.228;2023-01-28T18:59:40;-0.40;99.90
12720;DHT22;6424;48.520;11.228;2023-01-28T19:02:21;-0.40;99.90
12720;DHT22;6424;48.520;11.228;2023-01-28T19:05:02;-0.40;99.90
12720;DHT22;6424;48.520;11.228;2023-01-28T19:07:43;-0.40;99.90
12720;DHT22;6424;48.520;11.228;2023-01-28T19:10:23;-0.40;99.90
12720;DHT22;6424;48.520;11.228;2023-01-28T19:13:04;-0.30;99.90
12720;DHT22;6424;48.520;11.228;2023-01-28T19:15:45;-0.40;99.90
12720;DHT22;6424;48.520;11.228;2023-01-28T19:18:26;-0.40;99.90
12720;DHT22;6424;48.520;11.228;2023-01-28T19:21:07;-0.30;99.90
12720;DHT22;6424;48.520;11.228;2023-01-28T19:23:56;-0.30;99.90
12720;DHT22;6424;48.520;11.228;2023-01-28T19:26:37;-0.30;99.90